createdAt,value
2019-02-27T00:01:51.583Z,90.80
2019-02-27T00:04:21.971Z,90.80
2019-02-27T00:06:50.515Z,91.00
2019-02-27T00:09:19.191Z,90.90
2019-02-27T00:11:47.787Z,91.00
2019-02-27T00:14:19.133Z,91.10
2019-02-27T00:17:08.310Z,91.10
2019-02-27T00:19:36.979Z,91.00
2019-02-27T00:22:06.176Z,91.20
2019-02-27T00:24:34.732Z,91.30
2019-02-27T00:27:03.361Z,91.30
2019-02-27T00:29:31.930Z,91.30
2019-02-27T00:32:00.478Z,91.40
2019-02-27T00:34:32.800Z,91.40
2019-02-27T00:36:59.282Z,91.40
2019-02-27T00:39:31.232Z,91.50
2019-02-27T00:41:59.445Z,91.50
2019-02-27T00:44:28.012Z,91.40
2019-02-27T00:46:56.582Z,91.50
2019-02-27T00:49:25.147Z,91.60
2019-02-27T00:51:53.715Z,91.60
2019-02-27T00:54:22.312Z,91.60
2019-02-27T00:56:50.943Z,91.60
2019-02-27T00:59:19.499Z,91.60
2019-02-27T01:01:53.143Z,91.60
2019-02-27T01:04:27.616Z,91.60
2019-02-27T01:06:56.162Z,91.70
2019-02-27T01:09:24.797Z,91.70
2019-02-27T01:11:53.338Z,91.80
2019-02-27T01:14:23.575Z,91.70
2019-02-27T01:16:53.175Z,91.70
2019-02-27T01:19:24.585Z,91.60
2019-02-27T01:21:54.700Z,91.80
2019-02-27T01:24:23.254Z,92.00
2019-02-27T01:26:51.810Z,92.00
2019-02-27T01:29:22.287Z,92.10
2019-02-27T01:35:31.331Z,92.00
2019-02-27T01:37:59.892Z,92.20
2019-02-27T01:40:29.990Z,92.20
2019-02-27T01:42:58.598Z,92.20
2019-02-27T01:45:27.158Z,92.40
2019-02-27T01:47:55.704Z,92.50
2019-02-27T01:50:31.928Z,92.60
2019-02-27T01:53:00.551Z,92.70
2019-02-27T01:55:29.166Z,92.80
2019-02-27T01:57:57.818Z,92.80
2019-02-27T02:00:26.608Z,92.80
2019-02-27T02:02:56.624Z,93.00
2019-02-27T02:05:27.363Z,93.00
2019-02-27T02:07:56.217Z,93.00
2019-02-27T02:10:28.061Z,93.10
2019-02-27T02:12:58.843Z,93.10
2019-02-27T02:15:39.384Z,93.20
2019-02-27T02:18:37.628Z,93.20
2019-02-27T02:21:15.184Z,93.20
2019-02-27T02:24:06.214Z,93.20
2019-02-27T02:26:49.650Z,93.30
2019-02-27T02:29:43.662Z,93.30
2019-02-27T02:32:51.997Z,93.40
2019-02-27T02:35:37.444Z,93.50
2019-02-27T02:38:31.071Z,93.50
2019-02-27T02:41:17.392Z,93.60
2019-02-27T02:43:49.020Z,93.80
2019-02-27T02:46:46.422Z,94.00
2019-02-27T02:49:26.919Z,94.00
2019-02-27T02:52:05.957Z,94.00
2019-02-27T02:54:56.837Z,94.20
2019-02-27T02:57:41.216Z,94.40
2019-02-27T03:00:37.851Z,94.50
2019-02-27T03:03:06.729Z,94.60
2019-02-27T03:06:04.422Z,94.60
2019-02-27T03:08:44.755Z,94.70
2019-02-27T03:11:44.342Z,94.90
2019-02-27T03:14:20.466Z,94.80
2019-02-27T03:16:57.984Z,94.80
2019-02-27T03:19:41.788Z,94.90
2019-02-27T03:22:26.111Z,94.90
2019-02-27T03:25:31.442Z,95.00
2019-02-27T03:28:11.429Z,95.30
2019-02-27T03:30:53.693Z,95.30
2019-02-27T03:33:27.263Z,95.40
2019-02-27T03:36:13.271Z,95.40
2019-02-27T03:39:00.045Z,95.30
2019-02-27T03:41:50.796Z,95.40
2019-02-27T03:44:34.471Z,95.60
2019-02-27T03:47:28.375Z,95.70
2019-02-27T03:50:23.862Z,95.70
2019-02-27T03:52:55.991Z,95.80
2019-02-27T03:55:37.702Z,95.70
2019-02-27T03:58:37.001Z,95.90
2019-02-27T04:01:15.679Z,95.90
2019-02-27T04:04:11.415Z,95.70
2019-02-27T04:06:57.569Z,95.60
2019-02-27T04:09:25.613Z,95.60
2019-02-27T04:11:53.900Z,95.60
2019-02-27T04:14:40.171Z,95.60
2019-02-27T04:17:07.311Z,95.50
2019-02-27T04:19:39.232Z,95.50
2019-02-27T04:22:06.055Z,95.50
2019-02-27T04:24:34.656Z,95.50
2019-02-27T04:27:03.257Z,95.50
2019-02-27T04:29:32.058Z,95.50
2019-02-27T04:32:00.616Z,95.40
2019-02-27T04:34:33.021Z,95.40
2019-02-27T04:36:59.451Z,95.20
2019-02-27T04:39:28.032Z,95.20
2019-02-27T04:41:56.628Z,95.20
2019-02-27T04:44:25.209Z,95.10
2019-02-27T04:46:54.992Z,95.10
2019-02-27T04:49:25.754Z,95.10
2019-02-27T04:51:55.362Z,95.10
2019-02-27T04:54:23.980Z,95.20
2019-02-27T04:56:55.075Z,95.20
2019-02-27T04:59:23.052Z,95.20
2019-02-27T05:01:52.011Z,95.40
2019-02-27T05:04:23.514Z,95.50
2019-02-27T05:06:54.650Z,95.60
2019-02-27T05:09:25.635Z,95.70
2019-02-27T05:11:54.174Z,95.70
2019-02-27T05:14:24.892Z,95.70
2019-02-27T05:16:52.958Z,95.80
2019-02-27T05:19:23.150Z,95.70
2019-02-27T05:21:52.579Z,95.80
2019-02-27T05:24:21.673Z,95.70
2019-02-27T05:26:50.214Z,95.70
2019-02-27T05:29:18.813Z,95.60
2019-02-27T05:31:47.373Z,95.50
2019-02-27T05:34:15.925Z,95.60
2019-02-27T05:36:46.046Z,95.60
2019-02-27T05:39:14.907Z,95.60
2019-02-27T05:41:46.032Z,95.70
2019-02-27T05:44:21.372Z,95.70
2019-02-27T05:46:47.162Z,95.80
2019-02-27T05:49:15.719Z,95.80
2019-02-27T05:51:44.339Z,95.70
2019-02-27T05:54:12.909Z,96.00
2019-02-27T05:56:41.433Z,96.00
2019-02-27T05:59:10.054Z,96.00
2019-02-27T06:01:38.848Z,95.90
2019-02-27T06:04:10.611Z,95.90
2019-02-27T06:06:39.207Z,95.80
2019-02-27T06:09:12.188Z,95.70
2019-02-27T06:11:42.779Z,95.80
2019-02-27T06:14:13.931Z,95.60
2019-02-27T06:16:42.494Z,95.50
2019-02-27T06:19:12.789Z,95.50
2019-02-27T06:21:42.655Z,95.50
2019-02-27T06:24:12.810Z,95.50
2019-02-27T06:26:41.493Z,95.40
2019-02-27T06:29:10.067Z,95.50
2019-02-27T06:31:39.522Z,95.40
2019-02-27T06:34:08.176Z,95.50
2019-02-27T06:36:41.860Z,95.20
2019-02-27T06:39:08.780Z,95.30
2019-02-27T06:41:37.482Z,95.30
2019-02-27T06:44:06.147Z,95.20
2019-02-27T06:46:34.743Z,95.20
2019-02-27T06:49:05.146Z,95.10
2019-02-27T06:51:35.749Z,95.00
2019-02-27T06:54:04.511Z,94.80
2019-02-27T06:56:33.149Z,94.70
2019-02-27T06:59:01.942Z,94.60
2019-02-27T07:01:30.615Z,94.60
2019-02-27T07:03:59.175Z,94.40
2019-02-27T07:06:27.748Z,94.10
2019-02-27T07:08:56.337Z,94.10
2019-02-27T07:11:24.899Z,93.80
2019-02-27T07:13:53.455Z,93.80
2019-02-27T07:16:23.764Z,93.60
2019-02-27T07:18:52.327Z,93.30
2019-02-27T07:21:21.451Z,93.00
2019-02-27T07:23:57.575Z,93.10
2019-02-27T07:26:22.799Z,92.90
2019-02-27T07:28:52.429Z,92.80
2019-02-27T07:31:23.492Z,92.60
2019-02-27T07:34:01.250Z,92.60
2019-02-27T07:36:38.533Z,92.50
2019-02-27T07:39:09.165Z,92.30
2019-02-27T07:41:41.549Z,92.40
2019-02-27T07:44:10.111Z,92.30
2019-02-27T07:46:40.294Z,92.10
2019-02-27T07:49:12.087Z,91.80
2019-02-27T07:51:40.654Z,91.70
2019-02-27T07:54:09.232Z,91.40
2019-02-27T07:56:37.873Z,91.30
2019-02-27T07:59:06.714Z,91.50
2019-02-27T08:01:43.459Z,91.30
2019-02-27T08:04:05.565Z,91.00
2019-02-27T08:06:35.055Z,90.90
2019-02-27T08:09:05.733Z,90.80
2019-02-27T08:11:34.319Z,90.60
2019-02-27T08:14:03.952Z,90.40
2019-02-27T08:16:36.754Z,90.30
2019-02-27T08:19:08.834Z,90.20
2019-02-27T08:21:37.339Z,89.80
2019-02-27T08:24:07.448Z,89.70
2019-02-27T08:26:36.583Z,89.30
2019-02-27T08:29:05.520Z,89.00
2019-02-27T08:31:34.364Z,89.50
2019-02-27T08:34:03.006Z,88.50
2019-02-27T08:36:33.149Z,87.80
2019-02-27T08:39:01.788Z,87.70
2019-02-27T08:41:32.163Z,87.40
2019-02-27T08:44:00.825Z,87.00
2019-02-27T08:46:38.069Z,86.20
2019-02-27T08:49:10.308Z,85.50
2019-02-27T08:51:43.987Z,85.50
2019-02-27T08:54:15.728Z,84.90
2019-02-27T08:56:47.171Z,84.40
2019-02-27T08:59:15.655Z,84.10
2019-02-27T09:01:45.913Z,84.00
2019-02-27T09:04:15.613Z,83.80
2019-02-27T09:06:54.426Z,84.20
2019-02-27T09:09:25.249Z,84.10
2019-02-27T09:11:57.040Z,83.90
2019-02-27T09:14:26.414Z,83.70
2019-02-27T09:16:55.009Z,82.90
2019-02-27T09:19:24.615Z,82.70
2019-02-27T09:21:53.791Z,82.20
2019-02-27T09:24:22.543Z,82.10
2019-02-27T09:26:51.095Z,82.00
2019-02-27T09:29:20.619Z,81.50
2019-02-27T09:31:51.195Z,80.70
2019-02-27T09:34:19.769Z,81.20
2019-02-27T09:36:49.265Z,81.30
2019-02-27T09:39:19.547Z,81.30
2019-02-27T09:41:51.202Z,81.10
2019-02-27T09:44:19.860Z,80.30
2019-02-27T09:46:49.941Z,79.80
2019-02-27T09:49:21.413Z,78.50
2019-02-27T09:51:55.870Z,78.40
2019-02-27T09:54:20.783Z,77.30
2019-02-27T09:56:49.358Z,77.00
2019-02-27T09:59:19.789Z,77.70
2019-02-27T10:01:48.232Z,76.80
2019-02-27T10:04:17.608Z,75.90
2019-02-27T10:06:47.218Z,75.50
2019-02-27T10:09:17.055Z,76.40
2019-02-27T10:11:45.669Z,76.40
2019-02-27T10:14:16.393Z,75.90
2019-02-27T10:16:45.511Z,76.40
2019-02-27T10:19:17.006Z,77.00
2019-02-27T10:21:48.016Z,77.40
2019-02-27T10:24:18.256Z,77.70
2019-02-27T10:26:49.747Z,77.20
2019-02-27T10:29:21.571Z,76.20
2019-02-27T10:31:51.695Z,77.00
2019-02-27T10:34:20.291Z,77.10
2019-02-27T10:36:48.915Z,76.90
2019-02-27T10:39:20.191Z,76.60
2019-02-27T10:41:50.597Z,76.10
2019-02-27T10:44:19.274Z,75.90
2019-02-27T10:46:51.983Z,75.40
2019-02-27T10:49:21.790Z,75.90
2019-02-27T10:51:50.543Z,75.90
2019-02-27T10:54:19.897Z,75.20
2019-02-27T10:56:48.569Z,75.00
2019-02-27T10:59:19.643Z,74.90
2019-02-27T11:01:50.794Z,74.40
2019-02-27T11:04:21.795Z,73.40
2019-02-27T11:06:59.168Z,73.30
2019-02-27T11:09:29.110Z,73.20
2019-02-27T11:11:57.672Z,73.50
2019-02-27T11:14:26.375Z,72.20
2019-02-27T11:16:55.507Z,71.80
2019-02-27T11:19:25.635Z,70.20
2019-02-27T11:21:58.393Z,70.30
2019-02-27T11:24:25.468Z,69.20
2019-02-27T11:26:54.105Z,68.50
2019-02-27T11:29:27.109Z,68.50
2019-02-27T11:31:55.696Z,69.00
2019-02-27T11:34:24.320Z,68.80
2019-02-27T11:36:57.515Z,69.10
2019-02-27T11:39:30.508Z,68.30
2019-02-27T11:41:59.619Z,68.40
2019-02-27T11:44:29.376Z,67.70
2019-02-27T11:46:59.042Z,66.10
2019-02-27T11:49:27.750Z,65.00
2019-02-27T11:51:57.023Z,67.00
2019-02-27T11:54:25.960Z,67.50
2019-02-27T11:56:56.917Z,68.00
2019-02-27T11:59:25.908Z,68.40
2019-02-27T12:01:56.192Z,66.60
2019-02-27T12:04:24.814Z,64.00
2019-02-27T12:06:55.567Z,63.60
2019-02-27T12:09:25.276Z,63.40
2019-02-27T12:11:54.260Z,62.30
2019-02-27T12:14:25.106Z,62.80
2019-02-27T12:16:53.658Z,62.30
2019-02-27T12:19:22.246Z,60.60
2019-02-27T12:21:50.828Z,58.40
2019-02-27T12:24:19.627Z,59.60
2019-02-27T12:26:48.360Z,58.00
2019-02-27T12:29:16.984Z,57.60
2019-02-27T12:31:48.379Z,57.40
2019-02-27T12:34:17.526Z,57.40
2019-02-27T12:36:49.925Z,57.60
2019-02-27T12:39:18.689Z,56.80
2019-02-27T12:41:48.428Z,56.10
2019-02-27T12:44:22.098Z,56.40
2019-02-27T12:46:56.032Z,56.50
2019-02-27T12:49:28.333Z,57.20
2019-02-27T12:52:02.080Z,55.80
2019-02-27T12:54:35.420Z,55.60
2019-02-27T12:57:04.108Z,54.50
2019-02-27T12:59:36.348Z,54.50
2019-02-27T13:02:35.608Z,54.90
2019-02-27T13:05:00.279Z,53.40
2019-02-27T13:07:28.752Z,52.80
2019-02-27T13:09:59.410Z,52.60
2019-02-27T13:12:31.993Z,52.50
2019-02-27T13:15:06.385Z,53.30
2019-02-27T13:17:31.125Z,53.00
2019-02-27T13:19:59.679Z,53.10
2019-02-27T13:22:29.196Z,53.10
2019-02-27T13:24:58.747Z,53.40
2019-02-27T13:27:27.667Z,53.10
2019-02-27T13:30:08.469Z,53.40
2019-02-27T13:32:27.573Z,53.50
2019-02-27T13:34:56.125Z,51.80
2019-02-27T13:37:24.708Z,51.90
2019-02-27T13:39:53.282Z,52.00
2019-02-27T13:42:22.102Z,52.00
2019-02-27T13:44:51.448Z,51.90
2019-02-27T13:47:20.027Z,52.20
2019-02-27T13:49:48.630Z,53.10
2019-02-27T13:52:18.217Z,53.60
2019-02-27T13:54:46.867Z,53.80
2019-02-27T13:57:17.833Z,53.80
2019-02-27T13:59:48.921Z,53.80
2019-02-27T14:02:20.200Z,54.10
2019-02-27T14:04:57.327Z,54.40
2019-02-27T14:07:26.432Z,53.80
2019-02-27T14:09:58.234Z,53.80
2019-02-27T14:12:29.937Z,53.70
2019-02-27T14:14:59.711Z,53.90
2019-02-27T14:17:28.570Z,54.90
2019-02-27T14:20:06.177Z,55.10
2019-02-27T14:22:40.359Z,56.00
2019-02-27T14:25:17.250Z,56.20
2019-02-27T14:27:47.453Z,56.50
2019-02-27T14:30:21.023Z,57.10
2019-02-27T14:32:49.587Z,57.50
2019-02-27T14:35:18.475Z,58.00
2019-02-27T14:37:50.226Z,58.40
2019-02-27T14:40:22.002Z,59.00
2019-02-27T14:42:54.031Z,58.30
2019-02-27T14:45:25.657Z,58.80
2019-02-27T14:47:54.278Z,59.60
2019-02-27T14:50:33.621Z,58.50
2019-02-27T14:53:00.613Z,58.40
2019-02-27T14:55:29.330Z,58.10
2019-02-27T14:58:00.383Z,58.50
2019-02-27T15:00:31.903Z,58.40
2019-02-27T15:03:07.594Z,58.50
2019-02-27T15:05:42.860Z,58.70
2019-02-27T15:08:11.622Z,58.60
2019-02-27T15:10:44.313Z,58.50
2019-02-27T15:13:16.353Z,58.80
2019-02-27T15:15:46.072Z,58.40
2019-02-27T15:18:23.072Z,58.40
2019-02-27T15:20:51.676Z,59.00
2019-02-27T15:23:24.550Z,58.20
2019-02-27T15:25:55.903Z,58.20
2019-02-27T15:28:25.414Z,58.40
2019-02-27T15:30:58.689Z,58.20
2019-02-27T15:33:26.990Z,59.10
2019-02-27T15:35:58.681Z,58.70
2019-02-27T15:38:29.084Z,59.30
2019-02-27T15:41:02.444Z,59.40
2019-02-27T15:43:28.107Z,59.60
2019-02-27T15:45:56.671Z,59.40
2019-02-27T15:48:25.240Z,59.50
2019-02-27T15:50:56.601Z,59.40
2019-02-27T15:53:24.060Z,59.30
2019-02-27T15:55:52.631Z,59.20
2019-02-27T15:58:21.931Z,59.10
2019-02-27T16:00:53.445Z,59.60
2019-02-27T16:03:23.566Z,59.90
2019-02-27T16:05:52.155Z,60.40
2019-02-27T16:08:23.421Z,60.90
2019-02-27T16:10:54.811Z,61.80
2019-02-27T16:13:21.695Z,61.70
2019-02-27T16:15:50.265Z,62.10
2019-02-27T16:18:18.880Z,62.20
2019-02-27T16:20:49.805Z,62.60
2019-02-27T16:23:17.707Z,62.40
2019-02-27T16:25:46.391Z,62.10
2019-02-27T16:28:16.616Z,62.60
2019-02-27T16:30:47.002Z,61.70
2019-02-27T16:33:23.581Z,62.00
2019-02-27T16:35:46.438Z,61.90
2019-02-27T16:38:16.310Z,62.70
2019-02-27T16:40:52.066Z,62.90
2019-02-27T16:43:19.606Z,62.90
2019-02-27T16:45:51.195Z,63.80
2019-02-27T16:48:19.774Z,63.60
2019-02-27T16:50:49.432Z,63.80
2019-02-27T16:53:19.499Z,65.30
2019-02-27T16:55:48.362Z,64.90
2019-02-27T16:58:16.998Z,64.50
2019-02-27T17:00:45.744Z,64.80
2019-02-27T17:03:14.857Z,64.90
2019-02-27T17:05:43.896Z,65.20
2019-02-27T17:08:12.510Z,65.50
2019-02-27T17:10:41.160Z,65.70
2019-02-27T17:13:14.662Z,65.90
2019-02-27T17:15:40.137Z,66.10
2019-02-27T17:18:08.714Z,66.10
2019-02-27T17:20:39.283Z,66.20
2019-02-27T17:23:10.821Z,66.50
2019-02-27T17:25:39.105Z,66.40
2019-02-27T17:28:09.796Z,66.60
2019-02-27T17:30:38.411Z,67.10
2019-02-27T17:33:08.569Z,66.50
2019-02-27T17:35:37.112Z,66.90
2019-02-27T17:38:06.948Z,66.80
2019-02-27T17:40:39.389Z,66.90
2019-02-27T17:43:10.212Z,67.20
2019-02-27T17:45:40.492Z,67.50
2019-02-27T17:48:12.328Z,67.50
2019-02-27T17:50:42.192Z,68.10
2019-02-27T17:53:11.746Z,68.10
2019-02-27T17:55:42.543Z,68.40
2019-02-27T17:58:20.491Z,68.60
2019-02-27T18:01:04.423Z,69.10
2019-02-27T18:03:36.648Z,69.60
2019-02-27T18:06:07.699Z,70.10
2019-02-27T18:08:38.297Z,70.70
2019-02-27T18:11:12.319Z,70.80
2019-02-27T18:13:41.859Z,71.30
2019-02-27T18:16:10.377Z,71.70
2019-02-27T18:18:43.534Z,72.50
2019-02-27T18:21:12.181Z,72.50
2019-02-27T18:23:44.363Z,73.00
2019-02-27T18:26:16.627Z,73.70
2019-02-27T18:28:51.901Z,73.80
2019-02-27T18:31:26.545Z,74.20
2019-02-27T18:33:55.416Z,74.80
2019-02-27T18:36:24.037Z,75.70
2019-02-27T18:38:52.726Z,76.20
2019-02-27T18:41:23.742Z,76.90
2019-02-27T18:43:52.917Z,77.40
2019-02-27T18:46:24.479Z,78.10
2019-02-27T18:48:55.296Z,78.60
2019-02-27T18:51:25.978Z,79.00
2019-02-27T18:53:55.725Z,79.60
2019-02-27T18:56:24.255Z,80.10
2019-02-27T18:59:02.791Z,80.30
2019-02-27T19:01:31.445Z,80.90
2019-02-27T19:04:01.413Z,81.20
2019-02-27T19:06:30.215Z,81.80
2019-02-27T19:09:01.597Z,83.10
2019-02-27T19:11:30.212Z,82.50
2019-02-27T19:13:58.794Z,83.00
2019-02-27T19:16:27.402Z,83.40
2019-02-27T19:18:55.960Z,84.10
2019-02-27T19:21:24.530Z,84.40
2019-02-27T19:23:53.367Z,84.90
2019-02-27T19:26:22.158Z,85.70
2019-02-27T19:28:51.182Z,85.80
2019-02-27T19:31:19.861Z,86.10
2019-02-27T19:33:48.492Z,86.30
2019-02-27T19:36:19.410Z,86.90
2019-02-27T19:38:48.772Z,87.10
2019-02-27T19:41:17.453Z,87.80
2019-02-27T19:43:48.908Z,88.10
2019-02-27T19:46:17.524Z,88.40
2019-02-27T19:48:46.110Z,88.70
2019-02-27T19:51:17.158Z,89.10
2019-02-27T19:53:44.952Z,89.30
2019-02-27T19:56:14.579Z,89.60
2019-02-27T19:58:43.124Z,90.00
2019-02-27T20:01:14.515Z,90.20
2019-02-27T20:03:43.137Z,90.40
2019-02-27T20:06:11.725Z,90.50
2019-02-27T20:08:44.491Z,90.50
2019-02-27T20:11:10.664Z,90.60
2019-02-27T20:13:39.655Z,90.90
2019-02-27T20:16:08.451Z,90.90
2019-02-27T20:18:37.011Z,91.10
2019-02-27T20:21:05.915Z,91.10
2019-02-27T20:23:35.839Z,91.30
2019-02-27T20:26:13.848Z,91.50
2019-02-27T20:28:37.692Z,91.50
2019-02-27T20:31:07.693Z,91.60
2019-02-27T20:33:37.197Z,91.60
2019-02-27T20:36:06.606Z,91.70
2019-02-27T20:38:35.167Z,91.80
2019-02-27T20:41:06.027Z,91.70
2019-02-27T20:43:34.013Z,91.90
2019-02-27T20:46:03.137Z,92.00
2019-02-27T20:48:32.351Z,92.00
2019-02-27T20:51:08.052Z,92.00
2019-02-27T20:53:37.512Z,92.00
2019-02-27T20:56:06.166Z,92.00
2019-02-27T20:58:34.792Z,92.00
2019-02-27T21:01:03.913Z,92.10
2019-02-27T21:03:32.596Z,92.00
2019-02-27T21:06:01.188Z,91.80
2019-02-27T21:08:29.999Z,91.80
2019-02-27T21:11:00.412Z,91.80
2019-02-27T21:13:29.074Z,91.80
2019-02-27T21:15:57.775Z,91.80
2019-02-27T21:18:29.104Z,91.70
2019-02-27T21:20:56.605Z,91.70
2019-02-27T21:23:25.254Z,91.60
2019-02-27T21:25:54.011Z,91.60
2019-02-27T21:28:22.555Z,91.60
2019-02-27T21:30:52.357Z,91.50
2019-02-27T21:33:42.508Z,91.50
2019-02-27T21:36:11.418Z,91.60
2019-02-27T21:38:41.025Z,91.70
2019-02-27T21:41:11.813Z,91.70
2019-02-27T21:43:40.031Z,91.90
2019-02-27T21:46:11.742Z,91.80
2019-02-27T21:48:40.251Z,91.90
2019-02-27T21:51:11.019Z,91.90
2019-02-27T21:53:39.126Z,92.00
2019-02-27T21:56:07.653Z,92.00
2019-02-27T21:58:37.407Z,91.90
2019-02-27T22:01:05.997Z,92.00
2019-02-27T22:03:35.194Z,91.80
2019-02-27T22:06:04.842Z,91.70
2019-02-27T22:08:36.155Z,91.80
2019-02-27T22:11:06.160Z,91.80
2019-02-27T22:13:37.385Z,91.70
2019-02-27T22:16:06.023Z,91.60
2019-02-27T22:18:34.717Z,91.70
2019-02-27T22:21:03.292Z,91.70
2019-02-27T22:23:31.843Z,91.60
2019-02-27T22:26:03.100Z,91.60
2019-02-27T22:28:30.803Z,91.60
2019-02-27T22:30:59.433Z,91.60
2019-02-27T22:33:27.999Z,91.60
2019-02-27T22:35:56.550Z,91.70
2019-02-27T22:38:26.626Z,91.60
2019-02-27T22:40:58.030Z,91.70
2019-02-27T22:43:29.478Z,91.80
2019-02-27T22:45:57.735Z,91.80
2019-02-27T22:48:28.648Z,91.70
2019-02-27T22:50:56.529Z,91.70
2019-02-27T22:53:26.235Z,91.70
2019-02-27T22:55:55.299Z,91.70
2019-02-27T22:58:27.461Z,91.70
2019-02-27T23:01:02.085Z,91.70
2019-02-27T23:03:51.508Z,91.80
2019-02-27T23:06:20.168Z,92.00
2019-02-27T23:08:48.919Z,91.90
2019-02-27T23:11:17.883Z,92.00
2019-02-27T23:13:48.264Z,92.00
2019-02-27T23:16:17.255Z,91.90
2019-02-27T23:18:47.520Z,91.90
2019-02-27T23:21:16.230Z,91.90
2019-02-27T23:23:44.906Z,91.90
2019-02-27T23:26:19.764Z,92.00
2019-02-27T23:28:45.639Z,91.90
2019-02-27T23:31:22.379Z,91.80
2019-02-27T23:34:08.609Z,91.90
2019-02-27T23:36:38.731Z,91.90
2019-02-27T23:39:09.394Z,91.60
2019-02-27T23:41:40.143Z,91.50
2019-02-27T23:44:08.514Z,91.30
2019-02-27T23:46:37.745Z,91.20
2019-02-27T23:49:08.622Z,91.00
2019-02-27T23:51:38.853Z,91.00
2019-02-27T23:54:07.675Z,91.00
2019-02-27T23:56:36.233Z,90.90
2019-02-27T23:59:04.921Z,91.00
